Time;durP1;ratioP1;P1;durP2;ratioP2;P2;SDS_P1;SDS_P2;PMS_P1;PMS_P2;Temp;Humidity;BMP_temperature;BMP_pressure;BME280_temperature;BME280_humidity;BME280_pressure;Samples;Min_cycle;Max_cycle;Signal;HPM_P1;HPM_P2
2023/09/05 00:01:59;;;;;;;13.25;5.60;;;;;;;13.15;70.29;100726.53;4931029;29;20047;-73
2023/09/05 00:04:26;;;;;;;11.68;4.90;;;;;;;12.98;70.49;100692.63;4917244;29;20039;-73
2023/09/05 00:06:52;;;;;;;11.23;5.10;;;;;;;13.39;70.74;100762.09;4948159;28;20047;-74
2023/09/05 00:09:18;;;;;;;13.68;5.45;;;;;;;13.13;70.70;100710.84;4917448;29;20043;-72
2023/09/05 00:11:48;;;;;;;15.98;5.35;;;;;;;13.25;70.82;100722.97;4916410;29;20515;-73
2023/09/05 00:14:17;;;;;;;9.32;5.25;;;;;;;13.50;71.21;100760.34;4913643;29;20039;-73
2023/09/05 00:16:43;;;;;;;8.35;5.00;;;;;;;13.46;71.29;100748.16;4916703;29;20135;-75
2023/09/05 00:19:10;;;;;;;10.73;4.32;;;;;;;13.58;71.37;100741.13;4916324;29;20104;-75
2023/09/05 00:21:36;;;;;;;8.05;4.82;;;;;;;13.47;71.24;100726.38;4947933;28;20042;-76
2023/09/05 00:24:35;;;;;;;11.35;5.28;;;;;;;13.64;71.48;100746.31;4947530;28;20047;-76
2023/09/05 00:27:03;;;;;;;14.10;5.38;;;;;;;13.49;71.42;100727.25;4948051;28;20039;-76
2023/09/05 00:29:30;;;;;;;15.48;5.32;;;;;;;13.33;71.39;100715.97;4949438;28;20456;-75
2023/09/05 00:32:00;;;;;;;17.52;5.82;;;;;;;13.13;71.13;100689.94;4931825;29;20565;-76
2023/09/05 00:34:28;;;;;;;13.23;5.07;;;;;;;13.19;71.21;100721.25;4947657;28;20133;-75
2023/09/05 00:36:58;;;;;;;21.30;7.30;;;;;;;13.06;71.07;100696.94;4933036;29;20497;-74
2023/09/05 00:39:28;;;;;;;14.05;5.30;;;;;;;13.04;71.01;100711.75;4949013;29;20581;-74
2023/09/05 00:41:56;;;;;;;14.15;5.45;;;;;;;13.35;71.03;100760.41;4930055;29;20097;-76
2023/09/05 00:44:23;;;;;;;11.32;5.40;;;;;;;13.33;70.99;100770.00;4933223;29;20070;-74
2023/09/05 00:46:49;;;;;;;9.00;5.20;;;;;;;13.19;71.30;100744.78;4949139;29;20405;-76
2023/09/05 00:49:16;;;;;;;11.93;5.35;;;;;;;12.90;71.20;100692.66;4932894;29;20532;-75
2023/09/05 00:51:49;;;;;;;15.55;5.60;;;;;;;13.19;71.13;100741.31;4947440;28;20094;-75
2023/09/05 00:54:15;;;;;;;16.33;5.65;;;;;;;13.31;71.33;100758.69;4931852;29;20035;-75
2023/09/05 00:56:47;;;;;;;10.38;5.32;;;;;;;13.30;71.34;100741.25;4933368;29;20058;-75
2023/09/05 00:59:14;;;;;;;9.18;5.05;;;;;;;13.18;71.28;100732.59;4948957;29;20093;-73
2023/09/05 01:01:41;;;;;;;11.45;5.50;;;;;;;13.51;71.49;100761.22;4915506;29;20043;-76
2023/09/05 01:04:09;;;;;;;13.95;4.80;;;;;;;13.25;71.65;100723.84;4933262;29;20047;-75
2023/09/05 01:07:04;;;;;;;13.55;5.20;;;;;;;13.62;71.87;100771.59;4918347;29;20085;-75
2023/09/05 01:09:44;;;;;;;8.38;4.95;;;;;;;13.60;71.83;100762.91;4933528;29;20138;-75
2023/09/05 01:12:11;;;;;;;15.18;5.07;;;;;;;13.39;71.80;100734.25;4947830;29;20211;-75
2023/09/05 01:14:38;;;;;;;10.88;5.32;;;;;;;13.44;71.97;100723.78;4948497;28;20034;-76
2023/09/05 01:17:06;;;;;;;12.20;5.22;;;;;;;13.68;72.09;100758.50;4916533;29;20414;-74
2023/09/05 01:19:37;;;;;;;7.50;4.97;;;;;;;13.49;71.96;100742.94;4932124;29;20051;-75
2023/09/05 01:22:21;;;;;;;9.40;4.60;;;;;;;13.65;71.95;100759.41;4912961;29;20111;-76
2023/09/05 01:24:49;;;;;;;11.45;5.05;;;;;;;13.66;71.95;100761.13;4938263;29;20050;-75
2023/09/05 01:27:19;;;;;;;9.38;4.72;;;;;;;13.43;72.05;100737.72;4928257;29;20129;-75
2023/09/05 01:29:47;;;;;;;9.65;5.28;;;;;;;13.55;72.05;100755.97;4925063;29;20166;-75
2023/09/05 01:32:14;;;;;;;13.18;5.20;;;;;;;13.38;72.20;100719.44;4927468;29;20074;-75
2023/09/05 01:34:41;;;;;;;12.13;4.90;;;;;;;13.55;72.20;100757.72;4933263;29;20039;-75
2023/09/05 01:37:14;;;;;;;10.48;4.78;;;;;;;13.29;72.13;100709.00;4933283;29;20525;-75
2023/09/05 01:39:41;;;;;;;11.32;4.90;;;;;;;13.59;72.22;100758.53;4933970;29;20039;-75
2023/09/05 01:42:07;;;;;;;11.98;4.82;;;;;;;13.51;72.48;100750.75;4945831;28;20039;-75
2023/09/05 01:44:36;;;;;;;10.35;5.30;;;;;;;13.65;72.19;100774.22;4931290;29;20043;-75
2023/09/05 01:47:03;;;;;;;14.10;5.82;;;;;;;13.45;72.26;100738.59;4923090;29;20039;-77
2023/09/05 01:49:29;;;;;;;15.27;5.88;;;;;;;13.42;72.10;100756.91;4919894;29;20093;-74
2023/09/05 01:51:55;;;;;;;13.02;5.60;;;;;;;13.44;72.14;100762.13;4935486;29;20039;-74
2023/09/05 01:54:22;;;;;;;10.07;5.55;;;;;;;13.40;72.01;100763.84;4952691;29;20063;-74
2023/09/05 01:56:48;;;;;;;14.30;5.55;;;;;;;13.35;72.00;100748.19;4917678;29;20510;-76
2023/09/05 01:59:14;;;;;;;11.77;5.85;;;;;;;13.10;72.09;100708.25;4934861;29;20070;-75
2023/09/05 02:01:40;;;;;;;13.48;5.82;;;;;;;13.34;71.66;100745.59;4949634;28;20050;-75
2023/09/05 02:04:15;;;;;;;12.60;5.80;;;;;;;13.26;72.00;100741.28;4934075;29;20039;-75
2023/09/05 02:06:42;;;;;;;18.20;5.93;;;;;;;13.24;71.62;100756.09;4920339;29;20039;-75
2023/09/05 02:09:08;;;;;;;15.68;5.85;;;;;;;13.24;71.86;100763.94;4902433;29;20074;-75
2023/09/05 02:11:34;;;;;;;19.48;5.95;;;;;;;13.21;72.05;100758.72;4949185;29;20081;-73
2023/09/05 02:14:00;;;;;;;15.40;5.22;;;;;;;13.03;71.57;100727.44;4936515;29;20042;-74
2023/09/05 02:16:28;;;;;;;12.73;5.90;;;;;;;13.03;71.93;100740.50;4932668;29;20047;-75
2023/09/05 02:18:54;;;;;;;16.33;5.88;;;;;;;13.10;71.83;100760.53;4948716;28;20035;-75
2023/09/05 02:21:40;;;;;;;17.45;5.40;;;;;;;12.87;71.82;100735.34;4925471;29;20516;-75
2023/09/05 02:24:06;;;;;;;20.75;7.25;;;;;;;12.97;71.59;100770.16;4952924;29;20042;-75
2023/09/05 02:26:35;;;;;;;18.90;5.97;;;;;;;12.98;71.77;100771.00;4905287;29;20576;-73
2023/09/05 02:29:01;;;;;;;18.40;6.22;;;;;;;12.75;71.50;100738.88;4951202;29;20118;-75
2023/09/05 02:31:27;;;;;;;17.92;6.00;;;;;;;12.88;71.54;100773.66;4950432;29;20051;-75
2023/09/05 02:33:53;;;;;;;17.88;5.90;;;;;;;12.85;71.44;100765.81;4920459;29;20038;-76
2023/09/05 02:36:20;;;;;;;15.43;6.07;;;;;;;12.81;71.52;100769.31;4951516;28;20039;-74
2023/09/05 02:38:47;;;;;;;15.55;5.43;;;;;;;12.68;71.00;100751.94;4952017;29;20087;-75
2023/09/05 02:41:17;;;;;;;14.10;6.00;;;;;;;12.50;71.19;100738.03;4915590;29;20054;-76
2023/09/05 02:43:46;;;;;;;10.02;5.70;;;;;;;12.71;70.92;100783.25;4935122;29;20090;-77
2023/09/05 02:46:12;;;;;;;15.07;6.22;;;;;;;12.70;71.20;100781.50;4935192;29;20470;-77
2023/09/05 02:48:40;;;;;;;12.13;6.35;;;;;;;12.46;70.85;100746.78;4936495;29;20046;-76
2023/09/05 02:51:11;;;;;;;16.85;6.43;;;;;;;12.62;70.94;100784.13;4951172;29;20572;-75
2023/09/05 02:53:38;;;;;;;11.75;6.10;;;;;;;12.51;70.89;100771.09;4935090;29;20038;-78
2023/09/05 02:56:04;;;;;;;10.65;5.82;;;;;;;12.35;71.24;100734.59;4907637;29;20055;-75
2023/09/05 02:58:32;;;;;;;13.77;5.93;;;;;;;12.33;71.32;100731.13;4939222;29;20871;-76
2023/09/05 03:01:02;;;;;;;12.90;6.57;;;;;;;12.44;71.28;100751.13;4947348;28;20077;-76
2023/09/05 03:03:29;;;;;;;10.70;5.75;;;;;;;12.65;71.30;100785.03;4945767;28;20078;-76
2023/09/05 03:05:57;;;;;;;15.38;5.72;;;;;;;12.46;71.00;100754.59;4934750;29;20047;-76
2023/09/05 03:08:23;;;;;;;13.18;6.55;;;;;;;12.65;71.07;100787.63;4949156;29;20122;-77
2023/09/05 03:10:51;;;;;;;13.30;6.75;;;;;;;12.68;71.12;100784.13;4948739;28;20138;-77
2023/09/05 03:13:18;;;;;;;11.02;5.88;;;;;;;12.68;71.10;100791.13;4935216;29;20039;-74
2023/09/05 03:15:45;;;;;;;17.20;5.90;;;;;;;12.76;71.09;100786.72;4950831;28;20478;-77
2023/09/05 03:18:11;;;;;;;16.00;6.70;;;;;;;12.67;71.21;100768.50;4924527;29;20047;-76
2023/09/05 03:20:37;;;;;;;17.92;6.22;;;;;;;12.64;71.16;100756.28;4949752;28;20485;-74
2023/09/05 03:23:03;;;;;;;14.18;7.00;;;;;;;12.80;71.01;100772.81;4949964;28;20047;-74
2023/09/05 03:25:29;;;;;;;11.18;6.50;;;;;;;12.72;70.90;100754.53;4950718;29;20081;-75
2023/09/05 03:27:56;;;;;;;12.65;7.35;;;;;;;12.95;70.95;100791.03;4919434;29;20569;-74
2023/09/05 03:30:22;;;;;;;14.00;6.88;;;;;;;12.87;70.57;100769.31;4929488;29;20427;-76
2023/09/05 03:32:48;;;;;;;13.25;7.32;;;;;;;13.05;70.78;100793.63;4931495;29;20508;-75
2023/09/05 03:35:15;;;;;;;13.57;7.05;;;;;;;13.02;70.76;100767.50;4935252;29;20051;-75
2023/09/05 03:37:41;;;;;;;12.55;6.97;;;;;;;13.20;70.67;100782.25;4946155;29;20043;-75
2023/09/05 03:40:07;;;;;;;15.45;6.78;;;;;;;13.07;70.84;100742.25;4935761;29;20042;-78
2023/09/05 03:42:33;;;;;;;16.50;7.30;;;;;;;13.29;70.63;100765.66;4929260;29;20050;-77
2023/09/05 03:45:03;;;;;;;15.18;7.45;;;;;;;13.55;70.51;100787.34;4931449;29;20036;-76
2023/09/05 03:47:29;;;;;;;23.58;7.70;;;;;;;13.51;70.34;100758.59;4934069;29;20069;-76
2023/09/05 03:49:55;;;;;;;14.60;6.90;;;;;;;13.54;69.90;100750.75;4915284;29;20484;-74
2023/09/05 03:52:21;;;;;;;17.98;7.13;;;;;;;13.81;70.21;100765.38;4896474;29;20040;-75
2023/09/05 03:54:47;;;;;;;16.67;6.78;;;;;;;14.07;69.89;100787.88;4928940;29;20058;-76
2023/09/05 03:57:13;;;;;;;14.07;6.07;;;;;;;14.21;69.83;100785.16;4911788;29;20048;-77
2023/09/05 03:59:39;;;;;;;14.30;5.90;;;;;;;14.09;69.79;100728.53;4931249;29;20035;-77
2023/09/05 04:02:05;;;;;;;16.80;6.22;;;;;;;14.43;69.49;100764.91;4928868;29;20047;-75
2023/09/05 04:04:34;;;;;;;16.77;6.53;;;;;;;14.56;69.11;100767.38;4929976;29;20043;-77
2023/09/05 04:07:00;;;;;;;19.33;6.60;;;;;;;14.76;69.13;100782.94;4947103;29;20134;-77
2023/09/05 04:09:26;;;;;;;9.77;6.10;;;;;;;15.03;68.99;100783.50;4929488;29;20127;-76
2023/09/05 04:11:52;;;;;;;11.25;5.50;;;;;;;15.08;68.84;100759.88;4915814;29;20071;-75
2023/09/05 04:14:18;;;;;;;13.57;6.22;;;;;;;15.41;68.56;100776.03;4945625;29;20138;-75
2023/09/05 04:16:44;;;;;;;14.05;6.55;;;;;;;15.65;68.28;100780.09;4947100;29;20138;-75
2023/09/05 04:19:10;;;;;;;10.23;5.80;;;;;;;15.90;68.12;100779.75;4929432;29;20044;-76
2023/09/05 04:21:39;;;;;;;15.23;6.22;;;;;;;16.21;67.69;100782.75;4944633;28;20048;-73
2023/09/05 04:24:06;;;;;;;11.40;6.15;;;;;;;16.50;67.58;100784.00;4945532;28;20118;-74
2023/09/05 04:26:33;;;;;;;10.35;5.70;;;;;;;16.79;67.08;100779.97;4928148;29;20052;-75
2023/09/05 04:29:00;;;;;;;14.32;6.32;;;;;;;16.95;66.53;100763.91;4929077;29;20134;-77
2023/09/05 04:31:26;;;;;;;10.23;5.20;;;;;;;17.29;66.25;100777.25;4896563;29;20056;-74
2023/09/05 04:33:54;;;;;;;22.80;12.82;;;;;;;17.59;65.80;100780.13;4927260;29;20063;-74
2023/09/05 04:36:22;;;;;;;9.98;5.78;;;;;;;17.74;65.21;100760.47;4927062;29;20039;-73
2023/09/05 04:38:50;;;;;;;9.70;5.43;;;;;;;18.03;64.54;100771.25;4927770;29;20506;-75
2023/09/05 04:41:16;;;;;;;8.25;5.63;;;;;;;18.04;63.99;100738.75;4926609;29;20043;-75
2023/09/05 04:43:42;;;;;;;14.48;5.38;;;;;;;18.31;63.85;100747.69;4944734;29;20054;-77
2023/09/05 04:46:09;;;;;;;8.65;5.43;;;;;;;18.69;63.11;100770.44;4911458;29;20043;-76
2023/09/05 04:48:35;;;;;;;10.15;5.35;;;;;;;18.99;62.88;100788.97;4930289;29;20044;-76
2023/09/05 04:51:03;;;;;;;9.85;4.97;;;;;;;19.16;62.52;100777.97;4926692;29;20043;-80
2023/09/05 04:53:33;;;;;;;8.05;5.97;;;;;;;19.25;61.83;100753.94;4946072;28;20131;-79
2023/09/05 04:56:02;;;;;;;10.20;5.43;;;;;;;19.67;61.54;100786.97;4929919;29;20039;-80
2023/09/05 04:58:30;;;;;;;8.90;5.15;;;;;;;19.88;60.82;100771.41;4915801;29;20047;-74
2023/09/05 05:01:02;;;;;;;12.23;5.45;;;;;;;20.07;60.58;100743.47;4927594;29;20040;-73
2023/09/05 05:03:31;;;;;;;9.95;6.30;;;;;;;20.82;59.92;100759.44;4928806;29;20043;-74
2023/09/05 05:05:57;;;;;;;9.73;5.20;;;;;;;22.27;60.00;100777.59;4915880;29;20106;-73
2023/09/05 05:08:24;;;;;;;9.15;5.30;;;;;;;24.09;57.30;100758.72;4948816;29;20082;-74
2023/09/05 05:10:51;;;;;;;11.05;5.53;;;;;;;26.05;54.11;100766.88;4917117;29;20040;-73
2023/09/05 05:13:17;;;;;;;13.20;5.63;;;;;;;27.54;50.55;100731.13;4929771;29;20473;-71
2023/09/05 05:15:45;;;;;;;13.18;6.43;;;;;;;29.10;47.48;100757.09;4912988;29;20040;-74
2023/09/05 05:18:11;;;;;;;11.70;6.28;;;;;;;30.21;44.07;100731.94;4929126;29;20051;-73
2023/09/05 05:20:37;;;;;;;12.77;6.35;;;;;;;31.49;41.00;100753.19;4942751;29;20042;-72
2023/09/05 05:23:04;;;;;;;10.45;6.28;;;;;;;32.46;38.01;100746.03;4942993;28;20058;-74
2023/09/05 05:25:30;;;;;;;9.23;6.03;;;;;;;33.41;35.68;100757.47;4917080;29;20036;-73
2023/09/05 05:27:56;;;;;;;9.27;6.50;;;;;;;34.35;34.05;100761.44;4934436;29;20040;-72
2023/09/05 05:30:26;;;;;;;11.65;6.75;;;;;;;35.04;32.39;100725.22;4931804;29;20399;-74
2023/09/05 05:32:52;;;;;;;8.35;6.10;;;;;;;36.06;30.76;100746.69;4931498;29;21196;-73
2023/09/05 05:35:18;;;;;;;13.23;7.15;;;;;;;36.66;29.02;100739.63;4923913;29;20569;-74
2023/09/05 05:37:44;;;;;;;11.68;6.70;;;;;;;37.26;28.35;100764.94;4902341;29;20047;-73
2023/09/05 05:40:11;;;;;;;13.07;6.38;;;;;;;37.98;27.38;100748.09;4936408;29;20040;-74
2023/09/05 05:42:37;;;;;;;10.63;5.78;;;;;;;38.57;26.35;100727.94;4930799;29;20102;-76
2023/09/05 05:45:04;;;;;;;11.27;6.32;;;;;;;39.28;25.47;100732.53;4932492;29;20043;-74
2023/09/05 05:47:33;;;;;;;12.02;6.80;;;;;;;39.92;24.27;100734.97;4933192;29;20058;-76
2023/09/05 05:50:09;;;;;;;9.75;6.63;;;;;;;40.46;23.67;100721.31;4933299;29;20141;-74
2023/09/05 05:52:39;;;;;;;12.10;6.03;;;;;;;40.99;22.54;100725.78;4931677;29;20573;-81
2023/09/05 05:55:05;;;;;;;;;;;;;;;41.58;22.29;100738.41;4933839;29;20078;-76
2023/09/05 05:57:32;;;;;;;10.07;6.80;;;;;;;41.95;21.90;100700.91;4916969;29;19931;-73
2023/09/05 05:59:58;;;;;;;8.00;6.32;;;;;;;42.28;21.17;100708.44;4930828;29;20112;-72
2023/09/05 06:02:24;;;;;;;7.93;5.97;;;;;;;42.78;20.25;100712.06;4931566;29;20134;-74
2023/09/05 06:04:50;;;;;;;10.05;5.80;;;;;;;43.56;19.30;100747.22;4929952;29;20039;-76
2023/09/05 06:07:17;;;;;;;10.48;6.60;;;;;;;43.99;18.68;100737.75;4932939;29;20069;-72
2023/09/05 06:09:43;;;;;;;7.43;5.53;;;;;;;44.31;18.10;100702.28;4927138;29;20044;-73
2023/09/05 06:12:09;;;;;;;7.90;5.18;;;;;;;44.95;17.42;100740.03;4930206;29;20036;-71
2023/09/05 06:14:35;;;;;;;6.72;5.15;;;;;;;45.39;16.89;100734.69;4914404;29;20046;-73
2023/09/05 06:17:03;;;;;;;9.77;5.47;;;;;;;45.97;16.52;100741.00;4946649;29;20040;-72
2023/09/05 06:19:31;;;;;;;6.45;4.85;;;;;;;46.60;16.15;100736.34;4947628;28;20052;-71
2023/09/05 06:21:58;;;;;;;9.52;5.57;;;;;;;46.96;15.43;100726.34;4944974;29;20510;-70
2023/09/05 06:24:25;;;;;;;7.68;6.75;;;;;;;47.30;14.92;100729.47;4945169;29;20536;-72
2023/09/05 06:26:54;;;;;;;7.85;6.97;;;;;;;47.61;14.95;100726.66;4931098;29;20111;-71
2023/09/05 06:29:20;;;;;;;10.57;8.18;;;;;;;48.05;14.40;100726.28;4914862;29;20143;-76
2023/09/05 06:31:56;;;;;;;8.70;7.90;;;;;;;47.90;13.98;100732.25;4897880;29;20051;-76
2023/09/05 06:34:22;;;;;;;9.45;8.52;;;;;;;48.18;13.93;100720.53;4931237;29;20258;-75
2023/09/05 06:36:55;;;;;;;6.72;5.03;;;;;;;48.58;13.60;100729.91;4929551;29;20054;-71
2023/09/05 06:39:21;;;;;;;6.07;4.60;;;;;;;49.01;13.16;100727.72;4931267;29;20044;-74
2023/09/05 06:41:47;;;;;;;5.70;4.68;;;;;;;48.89;12.74;100732.44;4927982;29;20046;-72
2023/09/05 06:44:16;;;;;;;7.10;4.50;;;;;;;48.95;13.02;100725.94;4912035;29;20039;-73
2023/09/05 06:46:42;;;;;;;7.88;5.15;;;;;;;49.09;12.64;100710.78;4931872;29;20063;-70
2023/09/05 06:49:08;;;;;;;6.82;4.80;;;;;;;49.53;12.29;100717.59;4917006;29;20039;-75
2023/09/05 06:51:34;;;;;;;10.07;8.00;;;;;;;49.64;12.66;100719.41;4930603;29;20047;-76
2023/09/05 06:54:03;;;;;;;11.75;7.85;;;;;;;49.90;12.33;100705.97;4930338;29;20515;-75
2023/09/05 06:56:29;;;;;;;;;;;;;;;50.21;11.82;100722.16;4948170;28;20042;-80
2023/09/05 06:59:01;;;;;;;6.13;5.47;;;;;;;49.96;12.51;100682.00;4934007;29;19918;-79
2023/09/05 07:01:29;;;;;;;6.97;4.97;;;;;;;50.19;11.66;100714.97;4931241;29;20474;-79
2023/09/05 07:04:07;;;;;;;6.93;4.70;;;;;;;50.41;11.15;100718.81;4931452;29;20062;-80
2023/09/05 07:06:45;;;;;;;7.88;4.68;;;;;;;50.14;11.39;100703.00;4911131;29;20048;-79
2023/09/05 07:09:11;;;;;;;6.55;4.70;;;;;;;50.43;11.49;100711.94;4931486;29;20040;-83
2023/09/05 07:11:37;;;;;;;6.57;4.50;;;;;;;50.59;10.58;100681.69;4925876;29;20098;-79
2023/09/05 07:14:03;;;;;;;6.50;4.45;;;;;;;50.95;11.15;100698.69;4925849;29;20047;-77
2023/09/05 07:16:30;;;;;;;5.35;4.25;;;;;;;50.88;10.59;100701.63;4926534;29;20391;-76
2023/09/05 07:18:55;;;;;;;5.63;4.40;;;;;;;51.27;10.62;100688.72;4928466;29;20043;-77
2023/09/05 07:21:21;;;;;;;5.57;4.18;;;;;;;51.79;10.46;100690.72;4907989;29;20039;-76
2023/09/05 07:23:47;;;;;;;7.20;4.13;;;;;;;52.05;9.72;100659.53;4910405;29;20574;-77
2023/09/05 07:26:13;;;;;;;6.05;4.38;;;;;;;52.20;10.08;100680.94;4925793;29;20550;-75
2023/09/05 07:28:39;;;;;;;6.03;4.65;;;;;;;52.27;9.31;100662.13;4922642;29;20090;-76
2023/09/05 07:31:05;;;;;;;7.68;4.78;;;;;;;52.27;9.63;100684.31;4942602;28;20059;-76
2023/09/05 07:33:31;;;;;;;5.65;3.67;;;;;;;52.44;9.29;100663.81;4908422;29;20048;-76
2023/09/05 07:35:58;;;;;;;4.55;3.30;;;;;;;52.71;9.22;100686.66;4926937;29;20040;-75
2023/09/05 07:38:24;;;;;;;5.63;3.38;;;;;;;53.12;8.34;100660.03;4938823;28;20054;-75
2023/09/05 07:41:04;;;;;;;6.55;4.05;;;;;;;53.74;8.31;100662.75;4922181;29;20043;-75
2023/09/05 07:43:32;;;;;;;3.92;3.60;;;;;;;53.95;8.00;100673.81;4941088;28;20063;-76
2023/09/05 07:45:58;;;;;;;4.15;3.75;;;;;;;54.08;7.93;100678.72;4940195;29;20476;-74
2023/09/05 07:48:25;;;;;;;8.40;4.20;;;;;;;54.13;7.78;100673.16;4924728;29;20241;-75
2023/09/05 07:50:51;;;;;;;5.07;3.10;;;;;;;54.02;7.75;100654.84;4924452;29;20043;-76
2023/09/05 07:53:18;;;;;;;5.63;3.53;;;;;;;54.05;7.69;100663.47;4945809;28;20040;-78
2023/09/05 07:55:44;;;;;;;5.25;3.00;;;;;;;54.15;7.13;100637.53;4945758;29;20063;-81
2023/09/05 07:58:12;;;;;;;5.80;5.03;;;;;;;54.18;7.31;100636.13;4920210;29;20044;-76
2023/09/05 08:00:39;;;;;;;;;;;;;;;54.50;7.17;100669.03;4930860;29;20036;-76
2023/09/05 08:03:16;;;;;;;8.65;4.30;;;;;;;54.72;7.29;100612.09;4933272;29;19923;-74
2023/09/05 08:05:44;;;;;;;4.47;3.80;;;;;;;55.42;6.69;100628.75;4927683;29;20142;-74
2023/09/05 08:08:10;;;;;;;4.45;3.00;;;;;;;55.52;6.96;100662.91;4922330;29;20131;-77
2023/09/05 08:10:37;;;;;;;3.75;3.20;;;;;;;54.43;6.72;100631.53;4912136;29;20047;-77
2023/09/05 08:13:04;;;;;;;4.07;2.92;;;;;;;53.40;7.58;100643.91;4928751;29;20524;-80
2023/09/05 08:15:30;;;;;;;4.95;3.30;;;;;;;53.31;7.52;100644.47;4944872;29;20044;-75
2023/09/05 08:17:56;;;;;;;5.95;3.63;;;;;;;53.65;7.42;100606.88;4946641;29;20051;-82
2023/09/05 08:20:22;;;;;;;6.75;4.10;;;;;;;52.93;7.65;100643.94;4928124;29;20050;-80
2023/09/05 08:22:49;;;;;;;4.75;4.32;;;;;;;51.83;7.32;100633.63;4944035;29;20055;-77
2023/09/05 08:25:15;;;;;;;13.45;4.45;;;;;;;52.11;8.22;100633.47;4927517;29;20048;-75
2023/09/05 08:27:42;;;;;;;9.77;4.00;;;;;;;52.96;7.44;100623.13;4930192;29;20039;-76
2023/09/05 08:30:11;;;;;;;6.85;3.70;;;;;;;53.00;7.96;100622.28;4932605;29;20053;-74
2023/09/05 08:32:39;;;;;;;4.70;3.50;;;;;;;52.89;7.49;100578.09;4931896;29;20047;-75
2023/09/05 08:35:11;;;;;;;6.73;3.73;;;;;;;53.40;7.61;100588.31;4946303;29;20067;-77
2023/09/05 08:37:37;;;;;;;7.93;4.15;;;;;;;53.57;7.30;100583.25;4928393;29;20047;-79
2023/09/05 08:40:04;;;;;;;4.18;3.17;;;;;;;53.89;7.23;100620.94;4930238;29;20054;-82
2023/09/05 08:42:32;;;;;;;5.15;3.47;;;;;;;53.99;7.23;100594.22;4915498;29;20047;-77
2023/09/05 08:44:59;;;;;;;4.43;4.03;;;;;;;54.05;7.08;100581.94;4929979;29;20051;-76
2023/09/05 08:47:29;;;;;;;5.15;4.03;;;;;;;54.25;6.43;100596.81;4933052;29;20051;-75
2023/09/05 08:49:59;;;;;;;5.13;4.15;;;;;;;54.35;6.63;100603.19;4929330;29;20446;-77
2023/09/05 08:52:34;;;;;;;6.70;4.28;;;;;;;54.47;6.29;100591.69;4915857;29;20047;-75
2023/09/05 08:55:02;;;;;;;5.15;4.20;;;;;;;54.61;6.74;100616.94;4938374;29;20050;-75
2023/09/05 08:57:31;;;;;;;5.10;4.35;;;;;;;54.69;6.51;100567.31;4929866;28;20456;-75
2023/09/05 09:00:04;;;;;;;7.55;4.53;;;;;;;54.98;6.33;100608.25;4916657;29;20070;-74
2023/09/05 09:02:31;;;;;;;4.40;4.00;;;;;;;55.00;6.38;100609.66;4945099;29;20051;-75
2023/09/05 09:04:59;;;;;;;7.15;4.00;;;;;;;54.68;6.79;100590.72;4930135;29;20105;-76
2023/09/05 09:07:29;;;;;;;11.20;4.68;;;;;;;54.71;6.64;100590.94;4945943;29;20091;-75
2023/09/05 09:09:56;;;;;;;5.63;3.83;;;;;;;54.33;6.76;100588.72;4945097;28;20133;-73
2023/09/05 09:12:32;;;;;;;9.88;3.70;;;;;;;53.10;6.85;100567.81;4931418;29;20054;-80
2023/09/05 09:15:12;;;;;;;4.65;3.50;;;;;;;52.26;7.50;100594.72;4952280;29;20035;-85
2023/09/05 09:17:48;;;;;;;6.03;3.55;;;;;;;49.99;8.21;100593.00;4953169;29;20502;-84
2023/09/05 09:20:14;;;;;;;5.00;3.40;;;;;;;48.02;9.16;100586.16;4923923;29;20035;-81
2023/09/05 09:22:41;;;;;;;6.70;3.53;;;;;;;48.52;9.09;100579.97;4951074;29;20047;-80
2023/09/05 09:25:15;;;;;;;4.55;3.35;;;;;;;49.79;8.62;100593.59;4953113;29;20047;-83
2023/09/05 09:27:44;;;;;;;4.90;3.15;;;;;;;50.63;7.95;100595.13;4950377;28;20047;-78
2023/09/05 09:30:11;;;;;;;4.13;3.33;;;;;;;51.13;7.78;100594.94;4932648;29;20596;-81
2023/09/05 09:32:38;;;;;;;3.72;3.22;;;;;;;51.67;7.47;100577.28;4951667;28;20454;-81
2023/09/05 09:35:06;;;;;;;4.72;3.33;;;;;;;52.08;7.73;100596.03;4917987;29;20071;-80
2023/09/05 09:37:33;;;;;;;5.30;3.30;;;;;;;50.93;7.44;100574.31;4938433;29;20513;-86
2023/09/05 09:40:01;;;;;;;5.78;4.00;;;;;;;48.53;9.02;100586.34;4952636;29;20050;-80
2023/09/05 09:42:28;;;;;;;5.43;3.25;;;;;;;45.77;10.03;100555.22;4931985;29;20043;-81
2023/09/05 09:44:55;;;;;;;5.45;3.22;;;;;;;43.99;10.64;100518.56;4950873;29;20103;-79
2023/09/05 09:47:21;;;;;;;5.70;3.15;;;;;;;43.03;11.56;100583.78;4933383;29;20043;-83
2023/09/05 09:49:49;;;;;;;6.18;2.88;;;;;;;41.31;12.60;100562.59;4933934;29;20733;-80
2023/09/05 09:52:19;;;;;;;5.10;3.90;;;;;;;40.08;13.61;100585.16;4946924;28;20080;-81
2023/09/05 09:54:47;;;;;;;6.40;2.97;;;;;;;38.66;14.17;100561.09;4931478;29;20090;-81
2023/09/05 09:57:19;;;;;;;5.88;3.08;;;;;;;37.65;14.96;100552.63;4936491;29;20065;-83
2023/09/05 09:59:51;;;;;;;4.07;3.03;;;;;;;36.89;15.88;100575.38;4948909;28;20399;-83
2023/09/05 10:02:17;;;;;;;6.50;3.05;;;;;;;36.46;16.46;100552.94;4930399;29;20035;-79
2023/09/05 10:04:44;;;;;;;5.18;2.70;;;;;;;37.83;16.00;100517.13;4933613;29;20106;-86
2023/09/05 10:07:14;;;;;;;4.28;2.60;;;;;;;37.94;15.88;100546.66;4950625;29;20043;-85
2023/09/05 10:09:42;;;;;;;;;;;;;;;36.96;16.64;100572.03;4933781;29;20457;-83
2023/09/05 10:12:09;;;;;;;4.47;2.63;;;;;;;35.73;17.22;100557.81;4933580;29;20312;-84
2023/09/05 10:14:38;;;;;;;6.80;2.60;;;;;;;35.68;17.38;100535.81;4952428;28;20062;-82
2023/09/05 10:17:04;;;;;;;3.25;2.45;;;;;;;37.50;17.15;100575.06;4935933;29;20039;-83
2023/09/05 10:19:32;;;;;;;5.10;2.58;;;;;;;39.14;15.57;100527.44;4951617;28;20050;-80
2023/09/05 10:21:58;;;;;;;5.03;2.67;;;;;;;40.94;14.68;100563.53;4953980;29;20046;-85
2023/09/05 10:24:29;;;;;;;4.70;2.58;;;;;;;41.84;14.17;100549.31;4947652;29;20102;-76
2023/09/05 10:26:56;;;;;;;4.78;2.33;;;;;;;40.85;13.78;100558.41;4937272;29;20070;-83
2023/09/05 10:29:43;;;;;;;4.35;2.33;;;;;;;38.77;14.56;100556.22;4933205;29;20107;-76
2023/09/05 10:32:14;;;;;;;2.83;2.10;;;;;;;37.49;15.76;100543.53;4942783;28;20050;-75
2023/09/05 10:34:54;;;;;;;6.07;2.80;;;;;;;36.42;16.32;100567.78;4915687;29;20050;-78
2023/09/05 10:37:27;;;;;;;6.22;2.40;;;;;;;35.34;17.33;100564.47;4943061;29;20825;-79
2023/09/05 10:40:02;;;;;;;5.32;2.42;;;;;;;34.21;17.98;100527.00;4947676;29;20133;-78
2023/09/05 10:42:32;;;;;;;5.65;2.25;;;;;;;33.64;18.72;100553.06;4930255;29;20066;-77
2023/09/05 10:45:15;;;;;;;3.53;2.20;;;;;;;32.89;19.62;100542.88;4933346;29;20126;-81
2023/09/05 10:47:41;;;;;;;5.90;2.72;;;;;;;32.11;20.10;100516.59;4919286;29;20445;-79
2023/09/05 10:50:09;;;;;;;5.50;2.60;;;;;;;31.90;20.84;100545.41;4937428;29;20481;-76
2023/09/05 10:52:35;;;;;;;5.85;2.78;;;;;;;31.60;20.98;100520.19;4938249;29;20214;-75
2023/09/05 10:55:29;;;;;;;4.32;2.90;;;;;;;31.68;21.51;100549.94;4918692;29;20484;-79
2023/09/05 10:57:59;;;;;;;4.82;2.63;;;;;;;31.27;21.72;100505.97;4933234;29;20141;-75
2023/09/05 11:00:29;;;;;;;3.63;2.30;;;;;;;31.29;21.69;100550.56;4953216;29;20050;-77
2023/09/05 11:03:09;;;;;;;5.22;2.30;;;;;;;30.94;21.83;100541.78;4949276;28;20043;-79
2023/09/05 11:05:36;;;;;;;4.80;2.50;;;;;;;30.55;22.48;100530.66;4952099;28;20099;-81
2023/09/05 11:08:02;;;;;;;3.10;2.17;;;;;;;30.25;22.51;100524.13;4922826;29;20043;-78
2023/09/05 11:10:34;;;;;;;3.03;1.95;;;;;;;29.59;22.99;100498.00;4937492;29;20040;-80
2023/09/05 11:13:08;;;;;;;2.65;1.98;;;;;;;29.67;22.99;100530.44;4917361;29;20057;-77
2023/09/05 11:15:37;;;;;;;3.97;2.00;;;;;;;29.49;23.52;100538.06;4934788;29;20050;-78
2023/09/05 11:18:05;;;;;;;3.30;1.80;;;;;;;29.41;23.40;100540.47;4932571;29;20141;-76
2023/09/05 11:20:45;;;;;;;2.90;2.20;;;;;;;29.12;23.79;100551.56;4951006;28;20043;-77
2023/09/05 11:23:14;;;;;;;4.63;2.00;;;;;;;28.63;24.42;100529.25;4949241;29;20042;-74
2023/09/05 11:25:46;;;;;;;8.07;2.78;;;;;;;28.15;24.74;100497.97;4935976;29;20077;-80
2023/09/05 11:28:13;;;;;;;9.30;2.60;;;;;;;28.20;24.77;100533.25;4938900;29;20075;-70
2023/09/05 11:30:41;;;;;;;5.80;2.85;;;;;;;28.09;24.92;100532.16;4929890;29;20043;-69